sensor_id;sensor_type;location;lat;lon;timestamp;temperature;humidity
35111;DHT22;21290;50.158;8.658;2023-05-07T00:00:45;16.50;99.90
35111;DHT22;21290;50.158;8.658;2023-05-07T00:03:11;16.50;99.90
35111;DHT22;21290;50.158;8.658;2023-05-07T00:05:40;16.50;99.90
35111;DHT22;21290;50.158;8.658;2023-05-07T00:08:07;16.50;99.90
35111;DHT22;21290;50.158;8.658;2023-05-07T00:10:34;16.40;99.90
35111;DHT22;21290;50.158;8.658;2023-05-07T00:13:01;16.40;99.90
35111;DHT22;21290;50.158;8.658;2023-05-07T00:15:27;16.40;99.90
35111;DHT22;21290;50.158;8.658;2023-05-07T00:17:55;16.40;99.90
35111;DHT22;21290;50.158;8.658;2023-05-07T00:20:21;16.50;99.90
35111;DHT22;21290;50.158;8.658;2023-05-07T00:22:48;16.50;99.90
35111;DHT22;21290;50.158;8.658;2023-05-07T00:25:14;16.60;99.90
35111;DHT22;21290;50.158;8.658;2023-05-07T00:27:41;16.60;99.90
35111;DHT22;21290;50.158;8.658;2023-05-07T00:30:08;16.50;99.90
35111;DHT22;21290;50.158;8.658;2023-05-07T00:32:35;16.40;99.90
35111;DHT22;21290;50.158;8.658;2023-05-07T00:35:04;16.30;99.90
35111;DHT22;21290;50.158;8.658;2023-05-07T00:37:31;16.10;99.90
35111;DHT22;21290;50.158;8.658;2023-05-07T00:39:58;16.00;99.90
35111;DHT22;21290;50.158;8.658;2023-05-07T00:42:24;15.90;99.90
35111;DHT22;21290;50.158;8.658;2023-05-07T00:44:51;15.90;99.90
35111;DHT22;21290;50.158;8.658;2023-05-07T00:47:18;15.80;99.90
35111;DHT22;21290;50.158;8.658;2023-05-07T00:49:44;15.70;99.90
35111;DHT22;21290;50.158;8.658;2023-05-07T00:52:14;15.70;99.90
35111;DHT22;21290;50.158;8.658;2023-05-07T00:54:42;15.70;99.90
35111;DHT22;21290;50.158;8.658;2023-05-07T00:57:09;15.70;99.90
35111;DHT22;21290;50.158;8.658;2023-05-07T00:59:38;15.70;99.90
35111;DHT22;21290;50.158;8.658;2023-05-07T01:02:05;15.60;99.90
35111;DHT22;21290;50.158;8.658;2023-05-07T01:04:31;15.60;99.90
35111;DHT22;21290;50.158;8.658;2023-05-07T01:06:59;15.60;99.90
35111;DHT22;21290;50.158;8.658;2023-05-07T01:09:28;15.50;99.90
35111;DHT22;21290;50.158;8.658;2023-05-07T01:11:56;15.50;99.90
35111;DHT22;21290;50.158;8.658;2023-05-07T01:14:24;15.50;99.90
35111;DHT22;21290;50.158;8.658;2023-05-07T01:16:52;15.50;99.90
35111;DHT22;21290;50.158;8.658;2023-05-07T01:19:19;15.50;99.90
35111;DHT22;21290;50.158;8.658;2023-05-07T01:21:48;15.50;99.90
35111;DHT22;21290;50.158;8.658;2023-05-07T01:24:15;15.50;99.90
35111;DHT22;21290;50.158;8.658;2023-05-07T01:26:43;15.50;99.90
35111;DHT22;21290;50.158;8.658;2023-05-07T01:29:10;15.50;99.90
35111;DHT22;21290;50.158;8.658;2023-05-07T01:31:38;15.50;99.90
35111;DHT22;21290;50.158;8.658;2023-05-07T01:34:08;15.50;99.90
35111;DHT22;21290;50.158;8.658;2023-05-07T01:36:37;15.50;99.90
35111;DHT22;21290;50.158;8.658;2023-05-07T01:39:05;15.50;99.90
35111;DHT22;21290;50.158;8.658;2023-05-07T01:41:32;15.40;99.90
35111;DHT22;21290;50.158;8.658;2023-05-07T01:43:59;15.40;99.90
35111;DHT22;21290;50.158;8.658;2023-05-07T01:46:26;15.40;99.90
35111;DHT22;21290;50.158;8.658;2023-05-07T01:48:54;15.40;99.90
35111;DHT22;21290;50.158;8.658;2023-05-07T01:51:21;15.40;99.90
35111;DHT22;21290;50.158;8.658;2023-05-07T01:53:49;15.40;99.90
35111;DHT22;21290;50.158;8.658;2023-05-07T01:56:18;15.40;99.90
35111;DHT22;21290;50.158;8.658;2023-05-07T01:58:45;15.30;99.90
35111;DHT22;21290;50.158;8.658;2023-05-07T02:01:15;15.30;99.90
35111;DHT22;21290;50.158;8.658;2023-05-07T02:03:41;15.30;99.90
35111;DHT22;21290;50.158;8.658;2023-05-07T02:06:08;15.20;99.90
35111;DHT22;21290;50.158;8.658;2023-05-07T02:08:35;15.20;99.90
35111;DHT22;21290;50.158;8.658;2023-05-07T02:11:02;15.20;99.90
35111;DHT22;21290;50.158;8.658;2023-05-07T02:13:32;15.20;99.90
35111;DHT22;21290;50.158;8.658;2023-05-07T02:15:59;15.20;99.90
35111;DHT22;21290;50.158;8.658;2023-05-07T02:18:25;15.10;99.90
35111;DHT22;21290;50.158;8.658;2023-05-07T02:20:52;15.20;99.90
35111;DHT22;21290;50.158;8.658;2023-05-07T02:23:19;15.20;99.90
35111;DHT22;21290;50.158;8.658;2023-05-07T02:25:45;15.10;99.90
35111;DHT22;21290;50.158;8.658;2023-05-07T02:28:12;15.10;99.90
35111;DHT22;21290;50.158;8.658;2023-05-07T02:30:39;15.20;99.90
35111;DHT22;21290;50.158;8.658;2023-05-07T02:33:06;15.10;99.90
35111;DHT22;21290;50.158;8.658;2023-05-07T02:35:34;15.10;99.90
35111;DHT22;21290;50.158;8.658;2023-05-07T02:38:01;15.10;99.90
35111;DHT22;21290;50.158;8.658;2023-05-07T02:40:28;15.10;99.90
35111;DHT22;21290;50.158;8.658;2023-05-07T02:42:55;15.10;99.90
35111;DHT22;21290;50.158;8.658;2023-05-07T02:45:21;15.10;99.90
35111;DHT22;21290;50.158;8.658;2023-05-07T02:47:48;15.10;99.90
35111;DHT22;21290;50.158;8.658;2023-05-07T02:50:15;15.10;99.90
35111;DHT22;21290;50.158;8.658;2023-05-07T02:52:41;15.10;99.90
35111;DHT22;21290;50.158;8.658;2023-05-07T02:55:08;15.10;99.90
35111;DHT22;21290;50.158;8.658;2023-05-07T02:57:35;15.00;99.90
35111;DHT22;21290;50.158;8.658;2023-05-07T03:00:10;15.00;99.90
35111;DHT22;21290;50.158;8.658;2023-05-07T03:02:38;15.00;99.90
35111;DHT22;21290;50.158;8.658;2023-05-07T03:05:05;15.00;99.90
35111;DHT22;21290;50.158;8.658;2023-05-07T03:07:32;15.10;99.90
35111;DHT22;21290;50.158;8.658;2023-05-07T03:09:59;15.00;99.90
35111;DHT22;21290;50.158;8.658;2023-05-07T03:12:26;15.00;99.90
35111;DHT22;21290;50.158;8.658;2023-05-07T03:14:53;15.10;99.90
35111;DHT22;21290;50.158;8.658;2023-05-07T03:17:20;15.00;99.90
35111;DHT22;21290;50.158;8.658;2023-05-07T03:19:47;15.00;99.90
35111;DHT22;21290;50.158;8.658;2023-05-07T03:22:14;15.10;99.90
35111;DHT22;21290;50.158;8.658;2023-05-07T03:24:40;15.00;99.90
35111;DHT22;21290;50.158;8.658;2023-05-07T03:27:07;15.00;99.90
35111;DHT22;21290;50.158;8.658;2023-05-07T03:29:34;14.90;99.90
35111;DHT22;21290;50.158;8.658;2023-05-07T03:32:00;14.90;99.90
35111;DHT22;21290;50.158;8.658;2023-05-07T03:34:27;14.90;99.90
35111;DHT22;21290;50.158;8.658;2023-05-07T03:36:53;14.90;99.90
35111;DHT22;21290;50.158;8.658;2023-05-07T03:39:20;14.90;99.90
35111;DHT22;21290;50.158;8.658;2023-05-07T03:41:47;14.80;99.90
35111;DHT22;21290;50.158;8.658;2023-05-07T03:44:13;14.80;99.90
35111;DHT22;21290;50.158;8.658;2023-05-07T03:46:40;14.80;99.90
35111;DHT22;21290;50.158;8.658;2023-05-07T03:49:07;14.80;99.90
35111;DHT22;21290;50.158;8.658;2023-05-07T03:51:33;14.80;99.90
35111;DHT22;21290;50.158;8.658;2023-05-07T03:54:00;14.80;99.90
35111;DHT22;21290;50.158;8.658;2023-05-07T03:56:26;14.80;99.90
35111;DHT22;21290;50.158;8.658;2023-05-07T03:58:54;14.80;99.90
35111;DHT22;21290;50.158;8.658;2023-05-07T04:01:21;14.80;99.90
35111;DHT22;21290;50.158;8.658;2023-05-07T04:03:47;14.80;99.90
35111;DHT22;21290;50.158;8.658;2023-05-07T04:06:16;14.80;99.90
35111;DHT22;21290;50.158;8.658;2023-05-07T04:08:43;14.70;99.90
35111;DHT22;21290;50.158;8.658;2023-05-07T04:11:10;14.70;99.90
35111;DHT22;21290;50.158;8.658;2023-05-07T04:13:36;14.70;99.90
35111;DHT22;21290;50.158;8.658;2023-05-07T04:16:04;14.60;99.90
35111;DHT22;21290;50.158;8.658;2023-05-07T04:18:31;14.70;99.90
35111;DHT22;21290;50.158;8.658;2023-05-07T04:20:58;14.60;99.90
35111;DHT22;21290;50.158;8.658;2023-05-07T04:23:25;14.60;99.90
35111;DHT22;21290;50.158;8.658;2023-05-07T04:25:51;14.50;99.90
35111;DHT22;21290;50.158;8.658;2023-05-07T04:28:18;14.60;99.90
35111;DHT22;21290;50.158;8.658;2023-05-07T04:30:44;14.60;99.90
35111;DHT22;21290;50.158;8.658;2023-05-07T04:33:11;14.60;99.90
35111;DHT22;21290;50.158;8.658;2023-05-07T04:35:38;14.70;99.90
35111;DHT22;21290;50.158;8.658;2023-05-07T04:38:05;14.80;99.90
35111;DHT22;21290;50.158;8.658;2023-05-07T04:40:32;14.80;99.90
35111;DHT22;21290;50.158;8.658;2023-05-07T04:42:58;14.80;99.90
35111;DHT22;21290;50.158;8.658;2023-05-07T04:45:25;14.80;99.90
35111;DHT22;21290;50.158;8.658;2023-05-07T04:47:51;14.80;99.90
35111;DHT22;21290;50.158;8.658;2023-05-07T04:50:18;14.90;99.90
35111;DHT22;21290;50.158;8.658;2023-05-07T04:52:46;15.00;99.90
35111;DHT22;21290;50.158;8.658;2023-05-07T04:55:12;15.00;99.90
35111;DHT22;21290;50.158;8.658;2023-05-07T04:57:39;14.90;99.90
35111;DHT22;21290;50.158;8.658;2023-05-07T05:00:07;15.00;99.90
35111;DHT22;21290;50.158;8.658;2023-05-07T05:02:37;15.00;99.90
35111;DHT22;21290;50.158;8.658;2023-05-07T05:05:04;15.00;99.90
35111;DHT22;21290;50.158;8.658;2023-05-07T05:07:31;15.10;99.90
35111;DHT22;21290;50.158;8.658;2023-05-07T05:09:57;15.10;99.90
35111;DHT22;21290;50.158;8.658;2023-05-07T05:12:24;15.10;99.90
35111;DHT22;21290;50.158;8.658;2023-05-07T05:14:53;15.10;99.90
35111;DHT22;21290;50.158;8.658;2023-05-07T05:17:23;15.20;99.90
35111;DHT22;21290;50.158;8.658;2023-05-07T05:19:49;15.30;99.90
35111;DHT22;21290;50.158;8.658;2023-05-07T05:22:19;15.30;99.90
35111;DHT22;21290;50.158;8.658;2023-05-07T05:24:47;15.30;99.90
35111;DHT22;21290;50.158;8.658;2023-05-07T05:27:14;15.40;99.90
35111;DHT22;21290;50.158;8.658;2023-05-07T05:29:40;15.40;99.90
35111;DHT22;21290;50.158;8.658;2023-05-07T05:32:07;15.50;99.90
35111;DHT22;21290;50.158;8.658;2023-05-07T05:34:33;15.50;99.90
35111;DHT22;21290;50.158;8.658;2023-05-07T05:37:00;15.60;99.90
35111;DHT22;21290;50.158;8.658;2023-05-07T05:39:27;15.60;99.90
35111;DHT22;21290;50.158;8.658;2023-05-07T05:41:53;15.70;99.90
35111;DHT22;21290;50.158;8.658;2023-05-07T05:44:20;15.80;99.90
35111;DHT22;21290;50.158;8.658;2023-05-07T05:46:47;15.90;99.90
35111;DHT22;21290;50.158;8.658;2023-05-07T05:49:16;16.00;99.90
35111;DHT22;21290;50.158;8.658;2023-05-07T05:51:43;16.10;99.90
35111;DHT22;21290;50.158;8.658;2023-05-07T05:54:09;16.10;99.90
35111;DHT22;21290;50.158;8.658;2023-05-07T05:56:36;16.20;99.90
35111;DHT22;21290;50.158;8.658;2023-05-07T05:59:03;16.30;99.90
35111;DHT22;21290;50.158;8.658;2023-05-07T06:01:32;16.40;99.90
35111;DHT22;21290;50.158;8.658;2023-05-07T06:03:59;16.60;99.90
35111;DHT22;21290;50.158;8.658;2023-05-07T06:06:26;16.70;99.90
35111;DHT22;21290;50.158;8.658;2023-05-07T06:08:52;16.80;99.90
35111;DHT22;21290;50.158;8.658;2023-05-07T06:11:19;16.90;99.90
35111;DHT22;21290;50.158;8.658;2023-05-07T06:13:46;17.10;99.90
35111;DHT22;21290;50.158;8.658;2023-05-07T06:16:13;17.20;99.90
35111;DHT22;21290;50.158;8.658;2023-05-07T06:18:40;17.20;99.90
35111;DHT22;21290;50.158;8.658;2023-05-07T06:21:06;17.40;99.90
35111;DHT22;21290;50.158;8.658;2023-05-07T06:23:33;17.50;99.90
35111;DHT22;21290;50.158;8.658;2023-05-07T06:26:00;17.70;99.90
35111;DHT22;21290;50.158;8.658;2023-05-07T06:28:26;17.80;99.90
35111;DHT22;21290;50.158;8.658;2023-05-07T06:30:53;18.00;99.90
35111;DHT22;21290;50.158;8.658;2023-05-07T06:33:20;18.10;99.90
35111;DHT22;21290;50.158;8.658;2023-05-07T06:35:47;18.30;99.90
35111;DHT22;21290;50.158;8.658;2023-05-07T06:38:13;18.40;99.90
35111;DHT22;21290;50.158;8.658;2023-05-07T06:40:40;18.60;99.90
35111;DHT22;21290;50.158;8.658;2023-05-07T06:43:07;18.60;99.90
35111;DHT22;21290;50.158;8.658;2023-05-07T06:45:33;18.80;99.90
35111;DHT22;21290;50.158;8.658;2023-05-07T06:48:00;19.10;99.90
35111;DHT22;21290;50.158;8.658;2023-05-07T06:50:31;19.40;99.90
35111;DHT22;21290;50.158;8.658;2023-05-07T06:52:58;19.60;99.90
35111;DHT22;21290;50.158;8.658;2023-05-07T06:55:24;19.80;99.90
35111;DHT22;21290;50.158;8.658;2023-05-07T06:57:51;20.10;99.90
35111;DHT22;21290;50.158;8.658;2023-05-07T07:00:18;20.00;99.90
35111;DHT22;21290;50.158;8.658;2023-05-07T07:02:45;20.10;99.90
35111;DHT22;21290;50.158;8.658;2023-05-07T07:05:11;20.20;99.90
35111;DHT22;21290;50.158;8.658;2023-05-07T07:07:38;20.30;99.90
35111;DHT22;21290;50.158;8.658;2023-05-07T07:10:05;20.60;99.90
35111;DHT22;21290;50.158;8.658;2023-05-07T07:12:32;20.90;99.90
35111;DHT22;21290;50.158;8.658;2023-05-07T07:14:59;21.10;99.90
35111;DHT22;21290;50.158;8.658;2023-05-07T07:17:25;21.30;99.90
35111;DHT22;21290;50.158;8.658;2023-05-07T07:19:52;21.50;99.90
35111;DHT22;21290;50.158;8.658;2023-05-07T07:22:19;21.80;99.90
35111;DHT22;21290;50.158;8.658;2023-05-07T07:24:45;21.90;99.90
35111;DHT22;21290;50.158;8.658;2023-05-07T07:27:12;22.20;99.90
35111;DHT22;21290;50.158;8.658;2023-05-07T07:29:39;22.40;99.90
35111;DHT22;21290;50.158;8.658;2023-05-07T07:32:05;22.70;99.90
35111;DHT22;21290;50.158;8.658;2023-05-07T07:34:32;22.70;99.90
35111;DHT22;21290;50.158;8.658;2023-05-07T07:36:59;22.80;99.90
35111;DHT22;21290;50.158;8.658;2023-05-07T07:39:32;22.60;99.90
35111;DHT22;21290;50.158;8.658;2023-05-07T07:41:59;22.60;99.90
35111;DHT22;21290;50.158;8.658;2023-05-07T07:44:26;22.70;99.90
35111;DHT22;21290;50.158;8.658;2023-05-07T07:46:53;22.70;99.90
35111;DHT22;21290;50.158;8.658;2023-05-07T07:49:20;23.00;99.90
35111;DHT22;21290;50.158;8.658;2023-05-07T07:51:47;23.00;99.90
35111;DHT22;21290;50.158;8.658;2023-05-07T07:54:13;23.10;99.90
35111;DHT22;21290;50.158;8.658;2023-05-07T07:56:40;23.30;99.50
35111;DHT22;21290;50.158;8.658;2023-05-07T07:59:06;23.50;99.60
35111;DHT22;21290;50.158;8.658;2023-05-07T08:01:33;23.40;98.50
35111;DHT22;21290;50.158;8.658;2023-05-07T08:04:00;23.40;98.80
35111;DHT22;21290;50.158;8.658;2023-05-07T08:06:29;23.40;98.60
35111;DHT22;21290;50.158;8.658;2023-05-07T08:08:56;22.90;97.50
35111;DHT22;21290;50.158;8.658;2023-05-07T08:11:22;22.80;99.00
35111;DHT22;21290;50.158;8.658;2023-05-07T08:13:51;22.80;99.30
35111;DHT22;21290;50.158;8.658;2023-05-07T08:16:17;22.90;99.20
35111;DHT22;21290;50.158;8.658;2023-05-07T08:18:44;23.10;98.40
35111;DHT22;21290;50.158;8.658;2023-05-07T08:21:11;23.20;98.90
35111;DHT22;21290;50.158;8.658;2023-05-07T08:23:37;23.30;98.10
35111;DHT22;21290;50.158;8.658;2023-05-07T08:26:04;23.30;99.00
35111;DHT22;21290;50.158;8.658;2023-05-07T08:28:31;23.30;98.70
35111;DHT22;21290;50.158;8.658;2023-05-07T08:30:59;23.20;98.70
35111;DHT22;21290;50.158;8.658;2023-05-07T08:33:27;23.00;98.00
35111;DHT22;21290;50.158;8.658;2023-05-07T08:35:54;22.90;98.10
35111;DHT22;21290;50.158;8.658;2023-05-07T08:38:20;22.80;98.90
35111;DHT22;21290;50.158;8.658;2023-05-07T08:40:47;22.70;98.40
35111;DHT22;21290;50.158;8.658;2023-05-07T08:43:14;22.60;98.80
35111;DHT22;21290;50.158;8.658;2023-05-07T08:45:41;22.40;98.00
35111;DHT22;21290;50.158;8.658;2023-05-07T08:48:13;22.40;98.80
35111;DHT22;21290;50.158;8.658;2023-05-07T08:50:41;22.40;98.80
35111;DHT22;21290;50.158;8.658;2023-05-07T08:53:07;22.40;99.10
35111;DHT22;21290;50.158;8.658;2023-05-07T08:55:34;22.60;99.20
35111;DHT22;21290;50.158;8.658;2023-05-07T08:58:01;22.80;98.80
35111;DHT22;21290;50.158;8.658;2023-05-07T09:00:27;23.00;98.50
35111;DHT22;21290;50.158;8.658;2023-05-07T09:02:54;23.00;97.20
35111;DHT22;21290;50.158;8.658;2023-05-07T09:05:21;22.80;97.70
35111;DHT22;21290;50.158;8.658;2023-05-07T09:07:47;23.10;98.50
35111;DHT22;21290;50.158;8.658;2023-05-07T09:10:14;23.30;97.90
35111;DHT22;21290;50.158;8.658;2023-05-07T09:12:41;23.80;97.70
35111;DHT22;21290;50.158;8.658;2023-05-07T09:15:08;24.10;97.30
35111;DHT22;21290;50.158;8.658;2023-05-07T09:17:35;24.60;95.80
35111;DHT22;21290;50.158;8.658;2023-05-07T09:20:03;25.20;95.40
35111;DHT22;21290;50.158;8.658;2023-05-07T09:22:33;26.00;93.50
35111;DHT22;21290;50.158;8.658;2023-05-07T09:25:00;26.60;91.60
35111;DHT22;21290;50.158;8.658;2023-05-07T09:27:26;27.20;91.50
35111;DHT22;21290;50.158;8.658;2023-05-07T09:29:53;27.50;90.80
35111;DHT22;21290;50.158;8.658;2023-05-07T09:32:20;27.40;88.70
35111;DHT22;21290;50.158;8.658;2023-05-07T09:34:47;27.10;88.10
35111;DHT22;21290;50.158;8.658;2023-05-07T09:37:13;27.00;88.10
35111;DHT22;21290;50.158;8.658;2023-05-07T09:39:45;26.60;88.40
35111;DHT22;21290;50.158;8.658;2023-05-07T09:42:13;26.40;90.40
35111;DHT22;21290;50.158;8.658;2023-05-07T09:44:41;26.10;88.90
35111;DHT22;21290;50.158;8.658;2023-05-07T09:47:10;26.20;90.50
35111;DHT22;21290;50.158;8.658;2023-05-07T09:49:39;26.60;89.80
35111;DHT22;21290;50.158;8.658;2023-05-07T09:52:08;26.90;88.60
35111;DHT22;21290;50.158;8.658;2023-05-07T09:54:38;27.20;89.40
35111;DHT22;21290;50.158;8.658;2023-05-07T09:57:05;27.30;88.40
35111;DHT22;21290;50.158;8.658;2023-05-07T09:59:34;27.30;86.80
35111;DHT22;21290;50.158;8.658;2023-05-07T10:02:03;28.00;87.10
35111;DHT22;21290;50.158;8.658;2023-05-07T10:04:31;28.70;82.80
35111;DHT22;21290;50.158;8.658;2023-05-07T10:06:59;30.20;81.50
35111;DHT22;21290;50.158;8.658;2023-05-07T10:09:26;31.40;78.30
35111;DHT22;21290;50.158;8.658;2023-05-07T10:11:54;32.10;75.60
35111;DHT22;21290;50.158;8.658;2023-05-07T10:14:21;32.90;70.90
35111;DHT22;21290;50.158;8.658;2023-05-07T10:16:48;33.60;69.00
35111;DHT22;21290;50.158;8.658;2023-05-07T10:19:15;33.80;64.40
35111;DHT22;21290;50.158;8.658;2023-05-07T10:21:54;33.40;63.40
35111;DHT22;21290;50.158;8.658;2023-05-07T10:24:31;33.70;64.00
35111;DHT22;21290;50.158;8.658;2023-05-07T10:26:59;34.00;63.40
35111;DHT22;21290;50.158;8.658;2023-05-07T10:34:45;34.90;59.90
35111;DHT22;21290;50.158;8.658;2023-05-07T10:37:13;35.50;59.50
35111;DHT22;21290;50.158;8.658;2023-05-07T10:39:41;35.70;58.40
35111;DHT22;21290;50.158;8.658;2023-05-07T10:42:12;35.80;57.90
35111;DHT22;21290;50.158;8.658;2023-05-07T10:44:39;35.50;57.90
35111;DHT22;21290;50.158;8.658;2023-05-07T10:47:11;35.60;58.00
35111;DHT22;21290;50.158;8.658;2023-05-07T10:52:18;34.60;57.70
35111;DHT22;21290;50.158;8.658;2023-05-07T10:54:45;34.70;58.40
35111;DHT22;21290;50.158;8.658;2023-05-07T10:59:57;33.20;58.90
35111;DHT22;21290;50.158;8.658;2023-05-07T11:05:43;32.60;59.30
35111;DHT22;21290;50.158;8.658;2023-05-07T11:08:10;32.70;59.90
35111;DHT22;21290;50.158;8.658;2023-05-07T11:10:54;32.60;60.30
35111;DHT22;21290;50.158;8.658;2023-05-07T11:13:46;32.80;60.40
35111;DHT22;21290;50.158;8.658;2023-05-07T11:16:18;33.30;60.00
35111;DHT22;21290;50.158;8.658;2023-05-07T11:18:53;33.30;59.80
35111;DHT22;21290;50.158;8.658;2023-05-07T11:21:40;33.40;60.20
35111;DHT22;21290;50.158;8.658;2023-05-07T11:24:10;33.70;59.30
35111;DHT22;21290;50.158;8.658;2023-05-07T11:26:49;33.90;58.20
35111;DHT22;21290;50.158;8.658;2023-05-07T11:29:20;34.10;58.80
35111;DHT22;21290;50.158;8.658;2023-05-07T11:31:53;34.40;58.20
35111;DHT22;21290;50.158;8.658;2023-05-07T11:34:25;34.90;57.80
35111;DHT22;21290;50.158;8.658;2023-05-07T11:36:52;35.50;56.50
35111;DHT22;21290;50.158;8.658;2023-05-07T11:39:28;36.10;56.70
35111;DHT22;21290;50.158;8.658;2023-05-07T11:41:55;36.60;55.40
35111;DHT22;21290;50.158;8.658;2023-05-07T11:44:22;36.60;55.20
35111;DHT22;21290;50.158;8.658;2023-05-07T11:46:49;36.50;55.30
35111;DHT22;21290;50.158;8.658;2023-05-07T11:49:16;36.20;54.80
35111;DHT22;21290;50.158;8.658;2023-05-07T11:51:43;35.90;54.90
35111;DHT22;21290;50.158;8.658;2023-05-07T11:54:09;35.70;54.80
35111;DHT22;21290;50.158;8.658;2023-05-07T11:56:37;35.10;55.80
35111;DHT22;21290;50.158;8.658;2023-05-07T11:59:05;34.50;56.00
35111;DHT22;21290;50.158;8.658;2023-05-07T12:01:34;33.80;55.80
35111;DHT22;21290;50.158;8.658;2023-05-07T12:04:03;32.90;58.60
35111;DHT22;21290;50.158;8.658;2023-05-07T12:06:30;32.30;59.10
35111;DHT22;21290;50.158;8.658;2023-05-07T12:08:57;32.00;60.20
35111;DHT22;21290;50.158;8.658;2023-05-07T12:11:25;31.40;59.60
35111;DHT22;21290;50.158;8.658;2023-05-07T12:13:54;31.30;60.30
35111;DHT22;21290;50.158;8.658;2023-05-07T12:16:25;31.10;59.30
35111;DHT22;21290;50.158;8.658;2023-05-07T12:18:53;30.40;60.40
35111;DHT22;21290;50.158;8.658;2023-05-07T12:21:21;30.20;61.70
35111;DHT22;21290;50.158;8.658;2023-05-07T12:23:48;30.10;62.40
35111;DHT22;21290;50.158;8.658;2023-05-07T12:26:15;30.00;61.90
35111;DHT22;21290;50.158;8.658;2023-05-07T12:28:41;29.90;62.20
35111;DHT22;21290;50.158;8.658;2023-05-07T12:31:08;29.80;63.00
35111;DHT22;21290;50.158;8.658;2023-05-07T12:33:35;29.70;63.10
35111;DHT22;21290;50.158;8.658;2023-05-07T12:36:05;29.70;63.00
35111;DHT22;21290;50.158;8.658;2023-05-07T12:38:36;29.70;62.10
35111;DHT22;21290;50.158;8.658;2023-05-07T12:41:05;29.50;63.70
35111;DHT22;21290;50.158;8.658;2023-05-07T12:43:33;29.50;64.50
35111;DHT22;21290;50.158;8.658;2023-05-07T12:46:05;29.40;63.20
35111;DHT22;21290;50.158;8.658;2023-05-07T12:48:32;29.30;63.60
35111;DHT22;21290;50.158;8.658;2023-05-07T12:51:01;29.40;64.90
35111;DHT22;21290;50.158;8.658;2023-05-07T12:53:29;29.30;63.60
35111;DHT22;21290;50.158;8.658;2023-05-07T12:55:57;29.00;63.60
35111;DHT22;21290;50.158;8.658;2023-05-07T12:58:29;29.10;65.10
35111;DHT22;21290;50.158;8.658;2023-05-07T13:00:58;29.00;65.80
35111;DHT22;21290;50.158;8.658;2023-05-07T13:03:30;28.90;64.60
35111;DHT22;21290;50.158;8.658;2023-05-07T13:06:08;28.80;65.50
35111;DHT22;21290;50.158;8.658;2023-05-07T13:08:41;28.90;65.30
35111;DHT22;21290;50.158;8.658;2023-05-07T13:11:12;28.80;64.20
35111;DHT22;21290;50.158;8.658;2023-05-07T13:13:40;28.70;65.20
35111;DHT22;21290;50.158;8.658;2023-05-07T13:16:10;28.70;66.50
35111;DHT22;21290;50.158;8.658;2023-05-07T13:18:39;28.60;65.90
35111;DHT22;21290;50.158;8.658;2023-05-07T13:21:06;28.50;65.70
35111;DHT22;21290;50.158;8.658;2023-05-07T13:23:33;28.50;65.90
35111;DHT22;21290;50.158;8.658;2023-05-07T13:26:00;28.70;66.10
35111;DHT22;21290;50.158;8.658;2023-05-07T13:28:37;28.80;64.70
35111;DHT22;21290;50.158;8.658;2023-05-07T13:31:03;28.80;65.20
35111;DHT22;21290;50.158;8.658;2023-05-07T13:33:30;28.60;64.50
35111;DHT22;21290;50.158;8.658;2023-05-07T13:35:57;28.30;64.90
35111;DHT22;21290;50.158;8.658;2023-05-07T13:38:24;28.10;66.00
35111;DHT22;21290;50.158;8.658;2023-05-07T13:40:50;27.80;66.80
35111;DHT22;21290;50.158;8.658;2023-05-07T13:43:17;27.80;66.70
35111;DHT22;21290;50.158;8.658;2023-05-07T13:45:45;27.70;66.80
35111;DHT22;21290;50.158;8.658;2023-05-07T13:48:11;27.80;67.00
35111;DHT22;21290;50.158;8.658;2023-05-07T13:50:38;28.00;67.40
35111;DHT22;21290;50.158;8.658;2023-05-07T13:53:04;27.90;67.70
35111;DHT22;21290;50.158;8.658;2023-05-07T13:55:31;27.90;67.40
35111;DHT22;21290;50.158;8.658;2023-05-07T13:57:59;27.80;67.70
35111;DHT22;21290;50.158;8.658;2023-05-07T14:00:27;27.70;67.90
35111;DHT22;21290;50.158;8.658;2023-05-07T14:02:55;27.80;67.80
35111;DHT22;21290;50.158;8.658;2023-05-07T14:05:22;27.60;67.70
35111;DHT22;21290;50.158;8.658;2023-05-07T14:07:55;27.60;67.70
35111;DHT22;21290;50.158;8.658;2023-05-07T14:10:23;27.50;68.70
35111;DHT22;21290;50.158;8.658;2023-05-07T14:12:49;27.40;68.10
35111;DHT22;21290;50.158;8.658;2023-05-07T14:15:16;27.40;68.00
35111;DHT22;21290;50.158;8.658;2023-05-07T14:17:43;27.30;67.50
35111;DHT22;21290;50.158;8.658;2023-05-07T14:20:11;27.10;67.30
35111;DHT22;21290;50.158;8.658;2023-05-07T14:22:39;26.90;67.90
35111;DHT22;21290;50.158;8.658;2023-05-07T14:25:06;26.80;68.60
35111;DHT22;21290;50.158;8.658;2023-05-07T14:27:33;26.60;66.80
35111;DHT22;21290;50.158;8.658;2023-05-07T14:30:00;26.50;68.70
35111;DHT22;21290;50.158;8.658;2023-05-07T14:32:27;26.40;68.60
35111;DHT22;21290;50.158;8.658;2023-05-07T14:34:54;26.40;68.70
35111;DHT22;21290;50.158;8.658;2023-05-07T14:37:20;26.40;69.50
35111;DHT22;21290;50.158;8.658;2023-05-07T14:39:47;26.40;68.20
35111;DHT22;21290;50.158;8.658;2023-05-07T14:42:16;26.60;69.80
35111;DHT22;21290;50.158;8.658;2023-05-07T14:44:43;26.50;69.10
35111;DHT22;21290;50.158;8.658;2023-05-07T14:47:11;26.60;67.90
35111;DHT22;21290;50.158;8.658;2023-05-07T14:49:37;26.60;68.00
35111;DHT22;21290;50.158;8.658;2023-05-07T14:52:04;26.60;67.70
35111;DHT22;21290;50.158;8.658;2023-05-07T14:54:36;26.60;66.40
35111;DHT22;21290;50.158;8.658;2023-05-07T14:57:06;26.50;67.10
35111;DHT22;21290;50.158;8.658;2023-05-07T14:59:33;26.50;67.40
35111;DHT22;21290;50.158;8.658;2023-05-07T15:01:59;26.30;68.10
35111;DHT22;21290;50.158;8.658;2023-05-07T15:04:29;26.20;68.70
35111;DHT22;21290;50.158;8.658;2023-05-07T15:06:55;26.10;68.70
35111;DHT22;21290;50.158;8.658;2023-05-07T15:09:22;26.00;69.10
35111;DHT22;21290;50.158;8.658;2023-05-07T15:11:49;25.90;68.50
35111;DHT22;21290;50.158;8.658;2023-05-07T15:14:15;25.80;68.50
35111;DHT22;21290;50.158;8.658;2023-05-07T15:16:42;25.80;68.50
35111;DHT22;21290;50.158;8.658;2023-05-07T15:19:09;25.70;68.80
35111;DHT22;21290;50.158;8.658;2023-05-07T15:21:35;25.50;67.80
35111;DHT22;21290;50.158;8.658;2023-05-07T15:24:02;25.40;68.20
35111;DHT22;21290;50.158;8.658;2023-05-07T15:26:29;25.10;67.50
35111;DHT22;21290;50.158;8.658;2023-05-07T15:28:56;25.00;68.90
35111;DHT22;21290;50.158;8.658;2023-05-07T15:31:24;24.80;68.70
35111;DHT22;21290;50.158;8.658;2023-05-07T15:33:51;24.80;69.60
35111;DHT22;21290;50.158;8.658;2023-05-07T15:36:20;24.60;70.80
35111;DHT22;21290;50.158;8.658;2023-05-07T15:38:46;24.50;69.70
35111;DHT22;21290;50.158;8.658;2023-05-07T15:41:13;24.40;71.30
35111;DHT22;21290;50.158;8.658;2023-05-07T15:43:45;24.40;70.80
35111;DHT22;21290;50.158;8.658;2023-05-07T15:46:14;24.30;70.30